Aérodrome :
LOGIN :

S'inscrire | Disclaimer

   EN    FR    IT 

 










Légende :    VFR   VFR Marginal   IFR   IFR Intensif   IFR Très Intensif
Visi : 
Plafond : 
>= 8 km
>= 3000ft
5 à 8 km
1000 à 3000 ft
1500m à 5 km
500 à 1000 ft
800 à 1500m
200 à 500 ft
< 800m
< 200 ft
Symboles :   Orages  Brouillard  Fortes neiges  Fortes précipitations  Vent > 20 kt
SIGMETs :   Divers  Orages  Givrage  Turbulence  Onde Orograph.  Cendres Volcan.







- Altitude de l'aérodrome : 5600 ft
- Code IATA : SMV


LSZS - Samedan

DERNIER METAR :
  • 150620Z AUTO 00000KT 0550 BR NCD M22/M24 Q1015 RESN

METARs EXPIRÉS :
  • 150550Z AUTO VRB01KT 1900 -SN BR BKN/// M21/M24 Q1015
  • 150520Z AUTO VRB01KT 0900 BR NCD M23/M26 Q1015 RESN
  • 150450Z AUTO VRB02KT 0800 BR NCD M21/M24 Q1015 RESN
  • 150420Z AUTO 17001KT 1100 SN BR VV008 M21/M24 Q1015
  • 150350Z AUTO VRB01KT 0500 BR NCD M23/M26 Q1015 RESN

TAF TAF LSZS
Valide du 15 à 06h jusqu'au 15 à 15h UTC


150525Z 1506/1515 VRB03KT CAVOK TXM08/1514Z
ATIS : +41 81 834 93 24
Pas de NOTAMs connus pour ce terrain.



MET'MAP, la Météo Aéronautique d'un coup d'oeil ! - Copyright ORBIFLY Décembre 2007 - Disclaimer

ORBIFLY MET'MAP TEAM :

Programmation & Développement : Alexandra Zaïnal
Conception & Développement : Baudouin d'Aumeries
Co-Programmation & Développement : Marc-Olivier Méhu
Soutien technique & logistique : Manuel Goepfert

Contact : metmap@orbifly.com




SOURCES & CREDITS :

   NOAA